Adsdean, United Kingdom
Current Conditions -  °F | °C
As of 7:50 PM on Saturday 22 Nov 2014 (Local Time) from EGKA Reporting Station
Haze Haze  
Wind Chill: 14°   Ceiling: 900
Heat Index: 14°   Visibility: 1.5mi
Dew Point: 13°   Wind: 2mph
Humidity: 94%   Direction: 160°SSE
Pressure: 29.94"   Gusts: NA
Location:  50.86°N, 0.78°W
Report Text: EGKA 221950Z 16002KT 2500 BR SCT006 OVC009 14/13 Q1014
Loading
Personal Weather Stations






























Interactive Weather Map New forecast layout! Learn more

10-Day Weather Forecast

Advertisements
Track Severe Weather on mobile